createdAt,value
2018-07-07T00:01:18.651Z,5.70
2018-07-07T00:03:47.930Z,6.53
2018-07-07T00:06:17.084Z,6.90
2018-07-07T00:08:46.315Z,6.37
2018-07-07T00:11:15.462Z,6.20
2018-07-07T00:13:44.732Z,7.10
2018-07-07T00:16:14.535Z,7.47
2018-07-07T00:18:44.595Z,6.63
2018-07-07T00:21:13.809Z,7.00
2018-07-07T00:23:43.054Z,6.80
2018-07-07T00:26:12.452Z,6.93
2018-07-07T00:28:41.863Z,7.23
2018-07-07T00:31:11.133Z,6.70
2018-07-07T00:33:40.371Z,6.60
2018-07-07T00:36:09.532Z,7.03
2018-07-07T00:38:38.785Z,6.77
2018-07-07T00:41:08.053Z,6.67
2018-07-07T00:43:37.350Z,6.47
2018-07-07T00:46:06.655Z,6.80
2018-07-07T00:48:35.851Z,7.23
2018-07-07T00:51:05.006Z,6.47
2018-07-07T00:53:34.157Z,7.43
2018-07-07T00:56:03.300Z,7.17
2018-07-07T00:58:32.449Z,6.80
2018-07-07T01:01:01.809Z,7.70
2018-07-07T01:03:31.135Z,7.23
2018-07-07T01:06:00.502Z,6.07
2018-07-07T01:08:29.744Z,7.37
2018-07-07T01:10:59.043Z,6.73
2018-07-07T01:13:28.442Z,7.37
2018-07-07T01:15:57.847Z,8.10
2018-07-07T01:18:27.359Z,7.23
2018-07-07T01:20:56.686Z,6.57
2018-07-07T01:23:25.962Z,6.97
2018-07-07T01:25:55.669Z,7.17
2018-07-07T01:28:25.485Z,7.60
2018-07-07T01:30:54.976Z,7.37
2018-07-07T01:33:24.745Z,6.90
2018-07-07T01:35:54.625Z,8.20
2018-07-07T01:38:24.721Z,7.43
2018-07-07T01:40:53.970Z,7.23
2018-07-07T01:43:23.557Z,7.27
2018-07-07T01:45:53.142Z,7.43
2018-07-07T01:48:22.462Z,8.30
2018-07-07T01:50:51.686Z,7.50
2018-07-07T01:53:20.966Z,7.90
2018-07-07T01:55:50.221Z,8.00
2018-07-07T01:58:19.463Z,7.90
2018-07-07T02:00:48.809Z,8.10
2018-07-07T02:03:18.065Z,7.93
2018-07-07T02:05:47.316Z,8.40
2018-07-07T02:08:16.676Z,7.93
2018-07-07T02:10:45.991Z,8.10
2018-07-07T02:13:15.230Z,8.17
2018-07-07T02:15:44.573Z,8.00
2018-07-07T02:18:13.902Z,8.10
2018-07-07T02:20:43.131Z,8.30
2018-07-07T02:23:12.415Z,8.60
2018-07-07T02:25:41.643Z,7.37
2018-07-07T02:28:10.915Z,8.10
2018-07-07T02:30:40.150Z,8.00
2018-07-07T02:33:09.417Z,8.13
2018-07-07T02:35:38.659Z,9.00
2018-07-07T02:38:08.102Z,7.63
2018-07-07T02:40:37.377Z,8.90
2018-07-07T02:43:06.703Z,8.50
2018-07-07T02:45:36.082Z,8.13
2018-07-07T02:48:05.344Z,8.27
2018-07-07T02:50:34.671Z,8.80
2018-07-07T02:53:04.030Z,9.00
2018-07-07T02:55:33.283Z,9.13
2018-07-07T02:58:02.532Z,8.60
2018-07-07T03:00:31.738Z,9.20
2018-07-07T03:03:01.023Z,9.50
2018-07-07T03:05:30.262Z,7.30
2018-07-07T03:07:59.544Z,9.63
2018-07-07T03:10:28.874Z,8.80
2018-07-07T03:12:58.102Z,8.90
2018-07-07T03:15:27.452Z,8.30
2018-07-07T03:17:56.598Z,9.00
2018-07-07T03:20:25.853Z,8.63
2018-07-07T03:22:55.459Z,8.60
2018-07-07T03:25:24.781Z,8.97
2018-07-07T03:27:54.150Z,8.90
2018-07-07T03:30:23.486Z,8.60
2018-07-07T03:32:52.742Z,9.43
2018-07-07T03:35:22.071Z,9.67
2018-07-07T03:37:51.312Z,9.67
2018-07-07T03:40:20.551Z,9.03
2018-07-07T03:42:49.718Z,9.43
2018-07-07T03:45:19.238Z,8.60
2018-07-07T03:47:48.570Z,8.63
2018-07-07T03:50:17.929Z,9.07
2018-07-07T03:52:47.169Z,8.90
2018-07-07T03:55:16.466Z,9.40
2018-07-07T03:57:45.734Z,8.30
2018-07-07T04:00:14.973Z,8.53
2018-07-07T04:02:44.268Z,7.80
2018-07-07T04:05:13.572Z,8.30
2018-07-07T04:07:42.875Z,8.50
2018-07-07T04:10:12.376Z,8.50
2018-07-07T04:12:41.771Z,9.10
2018-07-07T04:15:11.121Z,8.80
2018-07-07T04:17:40.454Z,9.40
2018-07-07T04:20:09.717Z,8.87
2018-07-07T04:22:38.973Z,9.00
2018-07-07T04:25:08.181Z,9.30
2018-07-07T04:27:37.471Z,9.10
2018-07-07T04:30:06.787Z,9.10
2018-07-07T04:32:36.150Z,9.57
2018-07-07T04:35:05.381Z,8.97
2018-07-07T04:37:34.645Z,8.37
2018-07-07T04:40:03.990Z,8.60
2018-07-07T04:42:33.388Z,8.80
2018-07-07T04:45:02.676Z,9.33
2018-07-07T04:47:31.994Z,8.43
2018-07-07T04:50:01.416Z,9.30
2018-07-07T04:52:30.744Z,9.53
2018-07-07T04:55:00.301Z,9.30
2018-07-07T04:57:29.562Z,9.30
2018-07-07T04:59:58.901Z,9.80
2018-07-07T05:02:28.170Z,9.10
2018-07-07T05:04:57.506Z,8.77
2018-07-07T05:07:26.855Z,8.73
2018-07-07T05:09:56.117Z,7.97
2018-07-07T05:12:25.379Z,8.70
2018-07-07T05:14:54.721Z,8.30
2018-07-07T05:17:23.944Z,8.73
2018-07-07T05:19:53.289Z,8.40
2018-07-07T05:22:22.466Z,8.60
2018-07-07T05:24:51.802Z,8.13
2018-07-07T05:27:21.051Z,7.73
2018-07-07T05:29:50.290Z,7.93
2018-07-07T05:32:19.668Z,7.80
2018-07-07T05:34:48.910Z,7.73
2018-07-07T05:37:18.298Z,8.53
2018-07-07T05:39:47.598Z,7.90
2018-07-07T05:42:16.906Z,7.70
2018-07-07T05:44:46.206Z,7.60
2018-07-07T05:47:15.610Z,7.70
2018-07-07T05:49:51.416Z,8.00
2018-07-07T05:52:20.723Z,7.40
2018-07-07T05:54:49.916Z,7.70
2018-07-07T05:57:19.181Z,8.00
2018-07-07T05:59:48.411Z,7.57
2018-07-07T06:02:17.745Z,7.53
2018-07-07T06:04:47.263Z,7.13
2018-07-07T06:07:16.572Z,7.10
2018-07-07T06:09:45.841Z,7.00
2018-07-07T06:12:15.153Z,6.90
2018-07-07T06:14:44.554Z,7.13
2018-07-07T06:17:13.992Z,6.90
2018-07-07T06:19:43.281Z,7.00
2018-07-07T06:22:12.558Z,7.93
2018-07-07T06:24:41.734Z,8.40
2018-07-07T06:27:10.974Z,7.63
2018-07-07T06:29:40.371Z,7.13
2018-07-07T06:32:09.699Z,7.70
2018-07-07T06:34:39.062Z,7.53
2018-07-07T06:37:08.375Z,7.40
2018-07-07T06:39:37.663Z,6.70
2018-07-07T06:42:07.225Z,7.37
2018-07-07T06:44:36.566Z,7.37
2018-07-07T06:47:06.095Z,6.73
2018-07-07T06:49:35.397Z,6.40
2018-07-07T06:52:06.538Z,6.97
2018-07-07T06:54:35.905Z,6.97
2018-07-07T06:57:05.279Z,7.27
2018-07-07T06:59:34.570Z,6.87
2018-07-07T07:02:03.834Z,6.77
2018-07-07T07:04:33.094Z,6.00
2018-07-07T07:07:02.448Z,5.83
2018-07-07T07:09:31.718Z,5.43
2018-07-07T07:12:01.256Z,5.67
2018-07-07T07:14:31.932Z,5.97
2018-07-07T07:17:01.405Z,5.20
2018-07-07T07:19:30.674Z,4.83
2018-07-07T07:21:59.942Z,5.40
2018-07-07T07:24:29.195Z,5.80
2018-07-07T07:26:58.495Z,6.70
2018-07-07T07:29:27.732Z,5.20
2018-07-07T07:31:57.141Z,6.30
2018-07-07T07:34:26.339Z,5.27
2018-07-07T07:36:55.623Z,4.80
2018-07-07T07:39:24.857Z,4.53
2018-07-07T07:41:54.189Z,4.53
2018-07-07T07:44:23.492Z,3.80
2018-07-07T07:46:52.688Z,4.27
2018-07-07T07:49:21.938Z,3.13
2018-07-07T07:51:51.294Z,3.10
2018-07-07T07:54:20.583Z,2.90
2018-07-07T07:56:49.948Z,2.47
2018-07-07T07:59:19.181Z,2.80
2018-07-07T08:01:48.502Z,2.70
2018-07-07T08:04:17.789Z,4.57
2018-07-07T08:06:47.096Z,2.87
2018-07-07T08:09:16.347Z,2.90
2018-07-07T08:11:45.594Z,2.73
2018-07-07T08:14:14.910Z,2.80
2018-07-07T08:16:44.547Z,2.53
2018-07-07T08:19:14.155Z,2.80
2018-07-07T08:21:43.921Z,2.60
2018-07-07T08:24:13.323Z,2.90
2018-07-07T08:26:42.745Z,3.50
2018-07-07T08:29:11.647Z,2.97
2018-07-07T08:31:40.610Z,3.13
2018-07-07T08:34:09.554Z,3.40
2018-07-07T08:36:38.687Z,3.20
2018-07-07T08:39:07.705Z,3.67
2018-07-07T08:41:36.714Z,3.77
2018-07-07T08:44:06.188Z,3.57
2018-07-07T08:46:35.498Z,3.70
2018-07-07T08:49:04.966Z,3.30
2018-07-07T08:51:34.310Z,3.53
2018-07-07T08:54:03.528Z,2.73
2018-07-07T08:56:32.807Z,3.43
2018-07-07T08:59:02.067Z,3.20
2018-07-07T09:01:31.286Z,3.20
2018-07-07T09:04:00.758Z,3.20
2018-07-07T09:06:30.282Z,3.03
2018-07-07T09:08:59.710Z,3.50
2018-07-07T09:11:29.029Z,3.07
2018-07-07T09:13:58.389Z,3.40
2018-07-07T09:16:27.607Z,3.57
2018-07-07T09:18:56.967Z,3.87
2018-07-07T09:21:26.231Z,4.17
2018-07-07T09:23:55.507Z,4.17
2018-07-07T09:26:24.812Z,4.30
2018-07-07T09:28:53.982Z,4.57
2018-07-07T09:31:23.227Z,4.60
2018-07-07T09:33:52.544Z,4.17
2018-07-07T09:36:21.808Z,4.83
2018-07-07T09:38:51.253Z,4.30
2018-07-07T09:41:20.468Z,4.17
2018-07-07T09:43:49.707Z,4.37
2018-07-07T09:46:19.046Z,4.70
2018-07-07T09:48:48.327Z,4.73
2018-07-07T09:51:17.594Z,5.93
2018-07-07T09:53:47.012Z,5.10
2018-07-07T09:56:16.318Z,5.30
2018-07-07T09:58:45.614Z,4.83
2018-07-07T10:01:14.897Z,4.90
2018-07-07T10:03:44.115Z,5.10
2018-07-07T10:06:13.442Z,5.23
2018-07-07T10:08:42.862Z,5.00
2018-07-07T10:11:12.086Z,5.00
2018-07-07T10:13:41.527Z,4.80
2018-07-07T10:16:10.885Z,4.83
2018-07-07T10:18:40.125Z,4.43
2018-07-07T10:21:09.527Z,4.80
2018-07-07T10:23:38.935Z,5.00
2018-07-07T10:26:08.327Z,4.97
2018-07-07T10:28:37.648Z,5.30
2018-07-07T10:31:07.014Z,4.63
2018-07-07T10:33:36.350Z,10.83
2018-07-07T10:36:05.635Z,5.30
2018-07-07T10:38:35.050Z,5.27
2018-07-07T10:41:04.547Z,5.00
2018-07-07T10:43:33.994Z,5.30
2018-07-07T10:46:03.329Z,5.10
2018-07-07T10:48:33.821Z,4.90
2018-07-07T10:51:03.126Z,4.20
2018-07-07T10:53:32.488Z,3.80
2018-07-07T10:56:01.887Z,4.50
2018-07-07T10:58:31.211Z,4.90
2018-07-07T11:01:00.550Z,4.90
2018-07-07T11:03:29.732Z,4.60
2018-07-07T11:05:58.692Z,4.70
2018-07-07T11:08:27.811Z,5.27
2018-07-07T11:10:57.123Z,5.43
2018-07-07T11:13:26.479Z,5.20
2018-07-07T11:15:55.683Z,4.93
2018-07-07T11:18:24.978Z,4.83
2018-07-07T11:20:54.276Z,4.70
2018-07-07T11:23:23.675Z,4.30
2018-07-07T11:25:52.965Z,4.37
2018-07-07T11:28:22.306Z,4.33
2018-07-07T11:30:51.814Z,4.80
2018-07-07T11:33:21.087Z,3.53
2018-07-07T11:35:50.297Z,4.30
2018-07-07T11:38:19.600Z,4.70
2018-07-07T11:40:48.991Z,4.33
2018-07-07T11:43:18.392Z,4.27
2018-07-07T11:45:47.686Z,3.87
2018-07-07T11:48:17.101Z,3.90
2018-07-07T11:50:46.469Z,3.53
2018-07-07T11:53:15.714Z,3.67
2018-07-07T11:55:44.954Z,3.20
2018-07-07T11:58:14.475Z,3.80
2018-07-07T12:00:43.762Z,3.00
2018-07-07T12:03:13.105Z,3.50
2018-07-07T12:05:42.344Z,3.47
2018-07-07T12:08:13.991Z,2.60
2018-07-07T12:10:40.910Z,2.83
2018-07-07T12:13:10.306Z,2.73
2018-07-07T12:15:39.609Z,2.37
2018-07-07T12:18:08.917Z,2.60
2018-07-07T12:20:38.154Z,3.20
2018-07-07T12:23:07.509Z,3.50
2018-07-07T12:25:36.754Z,3.20
2018-07-07T12:28:05.994Z,3.00
2018-07-07T12:30:35.410Z,3.27
2018-07-07T12:33:04.814Z,3.23
2018-07-07T12:35:34.119Z,3.30
2018-07-07T12:38:03.542Z,3.47
2018-07-07T12:40:32.839Z,4.07
2018-07-07T12:43:02.238Z,4.17
2018-07-07T12:45:31.676Z,4.00
2018-07-07T12:48:01.023Z,4.03
2018-07-07T12:50:30.327Z,4.00
2018-07-07T12:52:59.732Z,4.20
2018-07-07T12:55:29.655Z,4.17
2018-07-07T12:57:59.074Z,4.13
2018-07-07T13:00:28.426Z,4.50
2018-07-07T13:02:57.774Z,4.20
2018-07-07T13:05:27.001Z,4.30
2018-07-07T13:07:56.204Z,4.63
2018-07-07T13:10:25.758Z,4.13
2018-07-07T13:12:55.116Z,4.70
2018-07-07T13:15:24.423Z,4.13
2018-07-07T13:17:53.628Z,5.20
2018-07-07T13:20:22.964Z,4.23
2018-07-07T13:22:52.259Z,5.07
2018-07-07T13:25:21.560Z,4.30
2018-07-07T13:27:50.809Z,3.80
2018-07-07T13:30:20.060Z,3.97
2018-07-07T13:32:49.206Z,4.00
2018-07-07T13:35:18.441Z,3.70
2018-07-07T13:37:47.756Z,3.90
2018-07-07T13:40:17.155Z,3.50
2018-07-07T13:42:46.330Z,3.53
2018-07-07T13:45:15.739Z,4.03
2018-07-07T13:47:45.059Z,3.40
2018-07-07T13:50:14.361Z,3.50
2018-07-07T13:52:43.623Z,3.80
2018-07-07T13:55:12.955Z,3.93
2018-07-07T13:57:42.362Z,3.60
2018-07-07T14:00:11.773Z,3.70
2018-07-07T14:02:41.046Z,3.37
2018-07-07T14:05:10.474Z,3.40
2018-07-07T14:07:39.709Z,3.60
2018-07-07T14:10:08.975Z,3.90
2018-07-07T14:12:38.224Z,3.10
2018-07-07T14:15:07.459Z,3.67
2018-07-07T14:17:36.962Z,4.00
2018-07-07T14:20:06.155Z,3.60
2018-07-07T14:22:35.422Z,3.60
2018-07-07T14:25:04.908Z,3.87
2018-07-07T14:27:34.145Z,3.53
2018-07-07T14:30:03.576Z,3.67
2018-07-07T14:32:32.883Z,3.97
2018-07-07T14:35:02.183Z,3.37
2018-07-07T14:37:31.544Z,3.80
2018-07-07T14:40:01.757Z,3.30
2018-07-07T14:42:48.926Z,3.60
2018-07-07T14:45:28.116Z,3.43
2018-07-07T14:48:02.605Z,3.33
2018-07-07T14:50:31.894Z,3.27
2018-07-07T14:53:01.079Z,3.60
2018-07-07T14:55:30.653Z,3.77
2018-07-07T14:57:59.941Z,3.40
2018-07-07T15:00:29.806Z,3.73
2018-07-07T15:02:59.231Z,3.50
2018-07-07T15:05:28.502Z,3.40
2018-07-07T15:07:57.885Z,3.67
2018-07-07T15:10:27.725Z,2.97
2018-07-07T15:12:57.490Z,3.13
2018-07-07T15:15:27.452Z,2.60
2018-07-07T15:17:56.851Z,2.87
2018-07-07T15:20:26.839Z,2.90
2018-07-07T15:22:56.204Z,2.80
2018-07-07T15:25:25.458Z,2.80
2018-07-07T15:27:54.764Z,3.07
2018-07-07T15:30:24.092Z,2.50
2018-07-07T15:32:53.349Z,2.73
2018-07-07T15:35:22.659Z,2.43
2018-07-07T15:37:52.028Z,2.30
2018-07-07T15:40:21.378Z,2.20
2018-07-07T15:42:50.694Z,2.37
2018-07-07T15:45:20.079Z,2.50
2018-07-07T15:47:49.555Z,2.47
2018-07-07T15:50:18.987Z,2.30
2018-07-07T15:52:48.243Z,1.80
2018-07-07T15:55:17.394Z,2.00
2018-07-07T15:57:46.792Z,1.80
2018-07-07T16:00:16.184Z,2.17
2018-07-07T16:02:45.494Z,1.53
2018-07-07T16:05:14.798Z,2.40
2018-07-07T16:07:44.058Z,1.70
2018-07-07T16:10:13.878Z,1.80
2018-07-07T16:12:42.810Z,2.30
2018-07-07T16:15:12.299Z,2.07
2018-07-07T16:17:41.567Z,1.80
2018-07-07T16:20:11.102Z,2.40
2018-07-07T16:22:40.258Z,1.73
2018-07-07T16:25:09.626Z,1.63
2018-07-07T16:27:38.959Z,1.47
2018-07-07T16:30:08.306Z,1.10
2018-07-07T16:32:37.597Z,1.33
2018-07-07T16:35:06.914Z,1.97
2018-07-07T16:37:36.168Z,1.83
2018-07-07T16:40:05.535Z,1.50
2018-07-07T16:42:36.924Z,1.67
2018-07-07T16:45:06.313Z,1.63
2018-07-07T16:47:35.438Z,1.70
2018-07-07T16:50:04.860Z,1.77
2018-07-07T16:52:34.055Z,1.50
2018-07-07T16:55:03.451Z,1.87
2018-07-07T16:57:32.840Z,1.83
2018-07-07T17:00:02.296Z,1.97
2018-07-07T17:02:31.547Z,1.70
2018-07-07T17:05:00.788Z,1.73
2018-07-07T17:07:30.457Z,1.77
2018-07-07T17:10:00.005Z,1.80
2018-07-07T17:12:29.325Z,1.47
2018-07-07T17:14:58.778Z,1.77
2018-07-07T17:17:28.159Z,1.53
2018-07-07T17:19:57.574Z,1.60
2018-07-07T17:22:26.995Z,1.60
2018-07-07T17:24:56.353Z,1.90
2018-07-07T17:27:26.522Z,1.73
2018-07-07T17:29:55.794Z,1.80
2018-07-07T17:32:25.010Z,2.13
2018-07-07T17:34:54.361Z,1.60
2018-07-07T17:37:23.747Z,15.00
2018-07-07T17:39:53.084Z,2.53
2018-07-07T17:42:22.360Z,2.57
2018-07-07T17:44:51.701Z,1.80
2018-07-07T17:47:21.128Z,1.70
2018-07-07T17:49:50.378Z,2.00
2018-07-07T17:52:19.607Z,1.30
2018-07-07T17:54:48.897Z,1.40
2018-07-07T17:57:18.234Z,1.77
2018-07-07T17:59:47.473Z,1.70
2018-07-07T18:02:16.927Z,1.67
2018-07-07T18:04:46.233Z,1.70
2018-07-07T18:07:15.633Z,1.70
2018-07-07T18:09:44.899Z,1.50
2018-07-07T18:12:14.302Z,1.50
2018-07-07T18:14:43.491Z,1.83
2018-07-07T18:17:12.722Z,1.40
2018-07-07T18:19:42.089Z,1.60
2018-07-07T18:22:11.350Z,1.73
2018-07-07T18:24:40.573Z,1.60
2018-07-07T18:27:10.055Z,1.93
2018-07-07T18:29:39.393Z,1.70
2018-07-07T18:32:08.751Z,1.80
2018-07-07T18:34:38.007Z,1.73
2018-07-07T18:37:07.455Z,2.00
2018-07-07T18:39:36.755Z,2.17
2018-07-07T18:42:06.056Z,1.67
2018-07-07T18:44:35.306Z,1.47
2018-07-07T18:47:04.640Z,1.50
2018-07-07T18:49:34.386Z,1.73
2018-07-07T18:52:03.765Z,1.53
2018-07-07T18:54:33.065Z,1.80
2018-07-07T18:57:02.419Z,2.07
2018-07-07T18:59:31.659Z,1.80
2018-07-07T19:02:00.980Z,1.80
2018-07-07T19:04:30.222Z,1.47
2018-07-07T19:06:59.553Z,1.60
2018-07-07T19:09:28.729Z,1.80
2018-07-07T19:11:57.974Z,1.87
2018-07-07T19:14:27.231Z,1.33
2018-07-07T19:16:56.584Z,1.83
2018-07-07T19:19:25.836Z,1.87
2018-07-07T19:22:00.190Z,1.60
2018-07-07T19:24:34.495Z,2.13
2018-07-07T19:27:05.401Z,1.70
2018-07-07T19:29:34.591Z,1.67
2018-07-07T19:32:08.850Z,2.00
2018-07-07T19:34:43.209Z,2.03
2018-07-07T19:37:17.287Z,1.80
2018-07-07T19:39:47.150Z,1.73
2018-07-07T19:42:16.563Z,2.00
2018-07-07T19:44:45.770Z,1.97
2018-07-07T19:47:15.004Z,2.27
2018-07-07T19:49:44.304Z,1.90
2018-07-07T19:52:13.699Z,2.23
2018-07-07T19:54:43.110Z,2.07
2018-07-07T19:57:12.538Z,2.00
2018-07-07T19:59:41.798Z,1.97
2018-07-07T20:02:11.118Z,2.10
2018-07-07T20:04:40.382Z,2.10
2018-07-07T20:07:09.620Z,1.90
2018-07-07T20:09:38.742Z,2.20
2018-07-07T20:12:08.014Z,2.00
2018-07-07T20:14:37.262Z,1.80
2018-07-07T20:17:10.778Z,1.93
2018-07-07T20:20:59.059Z,1.90
2018-07-07T20:23:30.202Z,2.13
2018-07-07T20:26:02.211Z,1.73
2018-07-07T20:28:36.504Z,1.50
2018-07-07T20:31:05.712Z,1.90
2018-07-07T20:33:34.981Z,1.70
2018-07-07T20:36:04.135Z,1.60
2018-07-07T20:38:33.135Z,1.80
2018-07-07T20:41:03.332Z,1.70
2018-07-07T20:43:32.687Z,1.70
2018-07-07T20:46:02.188Z,1.70
2018-07-07T20:48:31.550Z,1.60
2018-07-07T20:51:00.783Z,1.80
2018-07-07T20:53:30.301Z,1.60
2018-07-07T20:55:59.564Z,1.90
2018-07-07T20:58:28.804Z,1.43
2018-07-07T21:00:58.175Z,1.67
2018-07-07T21:03:27.409Z,1.73
2018-07-07T21:05:56.677Z,2.13
2018-07-07T21:08:25.972Z,1.83
2018-07-07T21:10:55.324Z,2.10
2018-07-07T21:13:24.612Z,1.80
2018-07-07T21:15:53.841Z,1.63
2018-07-07T21:18:23.194Z,1.73
2018-07-07T21:20:52.412Z,1.40
2018-07-07T21:23:21.852Z,1.60
2018-07-07T21:25:51.318Z,1.77
2018-07-07T21:28:20.643Z,1.70
2018-07-07T21:30:50.082Z,1.60
2018-07-07T21:33:19.323Z,1.60
2018-07-07T21:35:48.577Z,1.63
2018-07-07T21:38:17.941Z,1.73
2018-07-07T21:40:47.167Z,1.80
2018-07-07T21:43:16.535Z,1.50
2018-07-07T21:45:45.808Z,1.63
2018-07-07T21:48:15.129Z,1.57
2018-07-07T21:50:44.412Z,2.00
2018-07-07T21:53:13.740Z,2.17
2018-07-07T21:55:43.132Z,1.80
2018-07-07T21:58:17.461Z,1.63
2018-07-07T22:01:02.830Z,1.70
2018-07-07T22:03:37.327Z,2.33
2018-07-07T22:06:08.626Z,2.17
2018-07-07T22:08:38.353Z,1.80
2018-07-07T22:11:07.914Z,1.30
2018-07-07T22:13:37.231Z,1.80
2018-07-07T22:16:06.602Z,1.50
2018-07-07T22:18:36.031Z,1.90
2018-07-07T22:21:16.282Z,1.80
2018-07-07T22:23:45.813Z,1.80
2018-07-07T22:26:15.044Z,1.67
2018-07-07T22:28:44.281Z,2.10
2018-07-07T22:31:13.518Z,3.30
2018-07-07T22:33:42.778Z,2.00
2018-07-07T22:36:16.941Z,1.90
2018-07-07T22:38:51.103Z,1.67
2018-07-07T22:41:20.668Z,1.73
2018-07-07T22:43:50.006Z,1.40
2018-07-07T22:46:19.365Z,1.67
2018-07-07T22:48:48.635Z,1.70
2018-07-07T22:51:17.885Z,1.80
2018-07-07T22:53:47.107Z,1.50
2018-07-07T22:56:16.362Z,1.70
2018-07-07T22:58:45.653Z,1.90
2018-07-07T23:01:14.904Z,1.67
2018-07-07T23:03:44.218Z,1.70
2018-07-07T23:06:13.623Z,1.60
2018-07-07T23:08:43.310Z,1.50
2018-07-07T23:11:12.642Z,1.73
2018-07-07T23:13:41.883Z,1.40
2018-07-07T23:16:11.236Z,1.77
2018-07-07T23:18:40.498Z,1.60
2018-07-07T23:21:09.730Z,1.90
2018-07-07T23:23:39.003Z,1.60
2018-07-07T23:26:08.242Z,2.00
2018-07-07T23:28:37.522Z,1.60
2018-07-07T23:31:06.937Z,1.67
2018-07-07T23:33:36.318Z,1.50
2018-07-07T23:36:05.610Z,1.70
2018-07-07T23:38:35.035Z,1.83
2018-07-07T23:41:04.257Z,1.50
2018-07-07T23:43:33.524Z,1.40
2018-07-07T23:46:03.050Z,1.63
2018-07-07T23:48:32.530Z,1.60
2018-07-07T23:51:01.817Z,1.50
2018-07-07T23:53:30.993Z,1.40
2018-07-07T23:56:00.350Z,1.60
2018-07-07T23:58:29.614Z,1.50
